createdAt,value
2019-01-28T00:01:59.337Z,93.20
2019-01-28T00:04:27.600Z,93.20
2019-01-28T00:06:55.491Z,93.30
2019-01-28T00:09:23.520Z,93.20
2019-01-28T00:11:51.484Z,93.10
2019-01-28T00:14:19.434Z,92.80
2019-01-28T00:16:47.698Z,93.00
2019-01-28T00:19:16.006Z,92.90
2019-01-28T00:21:44.285Z,92.90
2019-01-28T00:24:12.461Z,93.00
2019-01-28T00:26:40.370Z,92.70
2019-01-28T00:29:08.317Z,92.50
2019-01-28T00:31:36.566Z,92.60
2019-01-28T00:34:04.914Z,93.00
2019-01-28T00:36:32.803Z,92.80
2019-01-28T00:39:00.675Z,93.00
2019-01-28T00:41:28.652Z,93.10
2019-01-28T00:43:56.646Z,93.30
2019-01-28T00:46:24.509Z,93.40
2019-01-28T00:48:52.776Z,93.60
2019-01-28T00:51:20.975Z,93.80
2019-01-28T00:53:48.865Z,93.70
2019-01-28T00:56:16.837Z,93.80
2019-01-28T00:58:44.840Z,94.00
2019-01-28T01:01:12.957Z,94.30
2019-01-28T01:03:41.088Z,94.30
2019-01-28T01:06:09.281Z,94.50
2019-01-28T01:08:37.251Z,94.70
2019-01-28T01:11:05.204Z,94.80
2019-01-28T01:13:33.095Z,94.90
2019-01-28T01:16:00.967Z,95.50
2019-01-28T01:18:28.937Z,95.60
2019-01-28T01:20:56.882Z,95.60
2019-01-28T01:23:25.112Z,95.70
2019-01-28T01:25:52.985Z,96.00
2019-01-28T01:28:20.890Z,96.10
2019-01-28T01:30:49.075Z,96.10
2019-01-28T01:33:17.036Z,96.30
2019-01-28T01:35:44.997Z,96.30
2019-01-28T01:38:13.218Z,96.20
2019-01-28T01:40:41.554Z,96.30
2019-01-28T01:43:09.453Z,96.70
2019-01-28T01:45:37.329Z,96.80
2019-01-28T01:48:05.612Z,96.70
2019-01-28T01:50:33.466Z,96.80
2019-01-28T01:53:01.429Z,97.10
2019-01-28T01:55:29.303Z,97.20
2019-01-28T01:57:57.558Z,97.40
2019-01-28T02:00:25.509Z,97.40
2019-01-28T02:02:53.401Z,97.80
2019-01-28T02:05:21.548Z,97.70
2019-01-28T02:07:49.438Z,97.90
2019-01-28T02:10:17.394Z,97.80
2019-01-28T02:12:45.666Z,98.30
2019-01-28T02:15:14.901Z,98.70
2019-01-28T02:17:42.833Z,99.00
2019-01-28T02:20:11.024Z,98.80
2019-01-28T02:22:38.991Z,99.00
2019-01-28T02:25:07.144Z,99.00
2019-01-28T02:27:35.313Z,99.00
2019-01-28T02:30:03.351Z,98.90
2019-01-28T02:32:31.253Z,99.00
2019-01-28T02:34:59.818Z,99.40
2019-01-28T02:37:27.697Z,99.40
2019-01-28T02:39:55.676Z,99.20
2019-01-28T02:42:23.626Z,99.40
2019-01-28T02:44:51.525Z,99.30
2019-01-28T02:47:19.404Z,99.30
2019-01-28T02:49:47.395Z,99.70
2019-01-28T02:52:15.365Z,99.90
2019-01-28T02:54:43.325Z,99.90
2019-01-28T02:57:11.218Z,99.70
2019-01-28T02:59:39.189Z,99.40
2019-01-28T03:02:07.145Z,99.30
2019-01-28T03:04:35.045Z,99.30
2019-01-28T03:07:02.986Z,99.60
2019-01-28T03:09:30.884Z,99.80
2019-01-28T03:11:58.765Z,99.90
2019-01-28T03:14:26.984Z,99.60
2019-01-28T03:16:56.754Z,98.90
2019-01-28T03:19:24.977Z,98.60
2019-01-28T03:21:54.474Z,98.60
2019-01-28T03:24:22.358Z,98.50
2019-01-28T03:26:50.232Z,98.40
2019-01-28T03:29:18.189Z,99.10
2019-01-28T03:31:46.210Z,99.10
2019-01-28T03:34:14.511Z,99.60
2019-01-28T03:36:42.402Z,99.40
2019-01-28T03:39:10.305Z,99.20
2019-01-28T03:41:38.258Z,99.00
2019-01-28T03:44:06.527Z,98.60
2019-01-28T03:46:34.589Z,98.80
2019-01-28T03:49:02.522Z,98.80
2019-01-28T03:51:30.548Z,98.90
2019-01-28T03:53:58.592Z,98.90
2019-01-28T03:56:26.452Z,99.20
2019-01-28T03:58:54.383Z,99.30
2019-01-28T04:01:22.340Z,99.50
2019-01-28T04:03:50.298Z,99.20
2019-01-28T04:06:18.182Z,99.50
2019-01-28T04:08:46.237Z,99.60
2019-01-28T04:11:14.434Z,99.70
2019-01-28T04:13:42.695Z,99.90
2019-01-28T04:16:10.569Z,99.90
2019-01-28T04:18:38.537Z,99.90
2019-01-28T04:21:06.503Z,99.90
2019-01-28T04:23:34.374Z,99.90
2019-01-28T04:26:02.716Z,99.90
2019-01-28T04:28:30.891Z,99.90
2019-01-28T04:30:58.784Z,99.90
2019-01-28T04:33:27.005Z,99.90
2019-01-28T04:35:54.897Z,99.90
2019-01-28T04:38:23.073Z,99.60
2019-01-28T04:40:51.074Z,99.40
2019-01-28T04:43:19.024Z,99.20
2019-01-28T04:45:46.982Z,99.30
2019-01-28T04:48:14.860Z,99.10
2019-01-28T04:50:42.820Z,98.70
2019-01-28T04:53:10.772Z,98.30
2019-01-28T04:55:38.666Z,98.00
2019-01-28T04:58:06.543Z,98.00
2019-01-28T05:00:34.504Z,97.70
2019-01-28T05:03:02.705Z,97.60
2019-01-28T05:05:30.669Z,97.50
2019-01-28T05:07:58.619Z,97.40
2019-01-28T05:10:26.507Z,97.30
2019-01-28T05:12:54.942Z,97.20
2019-01-28T05:15:22.829Z,97.10
2019-01-28T05:17:50.705Z,96.90
2019-01-28T05:20:19.245Z,97.40
2019-01-28T05:22:47.499Z,97.70
2019-01-28T05:25:15.542Z,97.70
2019-01-28T05:27:43.547Z,97.80
2019-01-28T05:30:14.864Z,98.00
2019-01-28T05:32:42.817Z,98.40
2019-01-28T05:35:12.713Z,98.00
2019-01-28T05:37:40.617Z,97.90
2019-01-28T05:40:09.788Z,97.90
2019-01-28T05:42:37.992Z,98.00
2019-01-28T05:45:06.489Z,97.90
2019-01-28T05:47:34.628Z,97.90
2019-01-28T05:50:02.524Z,97.90
2019-01-28T05:52:31.090Z,97.80
2019-01-28T05:54:59.244Z,97.70
2019-01-28T05:57:27.316Z,97.90
2019-01-28T05:59:55.205Z,98.10
2019-01-28T06:02:23.089Z,98.10
2019-01-28T06:04:50.973Z,98.20
2019-01-28T06:07:18.877Z,98.10
2019-01-28T06:09:46.761Z,98.20
2019-01-28T06:12:14.742Z,98.10
2019-01-28T06:14:42.689Z,97.90
2019-01-28T06:17:10.578Z,97.80
2019-01-28T06:19:38.525Z,98.00
2019-01-28T06:22:06.660Z,97.90
2019-01-28T06:24:34.549Z,98.10
2019-01-28T06:27:02.732Z,98.10
2019-01-28T06:29:30.717Z,98.20
2019-01-28T06:31:58.680Z,98.10
2019-01-28T06:34:26.856Z,97.90
2019-01-28T06:36:54.746Z,97.70
2019-01-28T06:39:22.803Z,97.80
2019-01-28T06:41:50.710Z,97.60
2019-01-28T06:44:19.080Z,97.60
2019-01-28T06:46:47.244Z,97.60
2019-01-28T06:49:15.125Z,97.60
2019-01-28T06:51:43.036Z,97.40
2019-01-28T06:54:13.693Z,97.30
2019-01-28T06:56:41.645Z,97.10
2019-01-28T06:59:09.528Z,97.20
2019-01-28T07:01:37.477Z,97.10
2019-01-28T07:04:05.704Z,97.00
2019-01-28T07:06:33.880Z,97.10
2019-01-28T07:09:01.790Z,97.00
2019-01-28T07:11:30.021Z,97.00
2019-01-28T07:14:00.207Z,97.00
2019-01-28T07:16:28.177Z,96.90
2019-01-28T07:18:56.073Z,96.70
2019-01-28T07:21:24.252Z,96.50
2019-01-28T07:23:52.290Z,96.40
2019-01-28T07:26:20.489Z,96.30
2019-01-28T07:28:48.368Z,96.00
2019-01-28T07:31:16.349Z,95.60
2019-01-28T07:33:44.230Z,95.30
2019-01-28T07:36:12.333Z,95.10
2019-01-28T07:38:40.206Z,95.10
2019-01-28T07:41:08.191Z,95.10
2019-01-28T07:43:36.060Z,95.20
2019-01-28T07:46:04.410Z,95.00
2019-01-28T07:48:32.360Z,94.70
2019-01-28T07:51:00.661Z,94.60
2019-01-28T07:53:28.524Z,94.40
2019-01-28T07:55:56.494Z,94.30
2019-01-28T07:58:24.356Z,94.30
2019-01-28T08:00:52.228Z,93.90
2019-01-28T08:03:20.096Z,93.80
2019-01-28T08:05:48.060Z,93.20
2019-01-28T08:08:15.993Z,93.10
2019-01-28T08:10:43.972Z,92.80
2019-01-28T08:13:12.149Z,92.80
2019-01-28T08:15:40.042Z,92.00
2019-01-28T08:18:10.837Z,91.90
2019-01-28T08:20:37.877Z,91.60
2019-01-28T08:23:05.816Z,91.70
2019-01-28T08:25:33.700Z,91.60
2019-01-28T08:28:01.825Z,91.70
2019-01-28T08:30:30.843Z,91.30
2019-01-28T08:32:59.060Z,90.80
2019-01-28T08:35:27.570Z,90.80
2019-01-28T08:37:55.437Z,88.80
2019-01-28T08:40:23.434Z,85.70
2019-01-28T08:42:51.368Z,82.40
2019-01-28T08:45:19.251Z,81.20
2019-01-28T08:47:47.210Z,80.90
2019-01-28T08:50:16.984Z,80.80
2019-01-28T08:52:44.954Z,80.30
2019-01-28T08:55:14.647Z,80.20
2019-01-28T08:57:42.772Z,79.90
2019-01-28T09:00:18.074Z,80.70
2019-01-28T09:02:46.029Z,80.40
2019-01-28T09:05:13.937Z,81.30
2019-01-28T09:07:41.888Z,81.20
2019-01-28T09:10:10.297Z,80.60
2019-01-28T09:12:38.241Z,80.90
2019-01-28T09:15:06.533Z,81.30
2019-01-28T09:17:34.480Z,82.40
2019-01-28T09:20:02.443Z,82.80
2019-01-28T09:22:30.309Z,82.50
2019-01-28T09:24:58.172Z,82.50
2019-01-28T09:27:26.052Z,82.40
2019-01-28T09:29:54.160Z,82.20
2019-01-28T09:32:22.128Z,81.70
2019-01-28T09:34:50.068Z,81.30
2019-01-28T09:37:17.955Z,80.40
2019-01-28T09:39:45.894Z,80.20
2019-01-28T09:42:13.767Z,78.20
2019-01-28T09:44:41.877Z,77.60
2019-01-28T09:47:09.838Z,77.70
2019-01-28T09:49:37.797Z,76.90
2019-01-28T09:52:05.752Z,77.00
2019-01-28T09:54:33.944Z,75.80
2019-01-28T09:57:01.897Z,74.20
2019-01-28T09:59:29.951Z,74.20
2019-01-28T10:01:57.837Z,73.70
2019-01-28T10:04:25.716Z,74.10
2019-01-28T10:06:53.596Z,73.30
2019-01-28T10:09:21.464Z,74.20
2019-01-28T10:11:49.687Z,74.20
2019-01-28T10:14:17.630Z,74.40
2019-01-28T10:16:45.590Z,74.70
2019-01-28T10:19:13.640Z,75.40
2019-01-28T10:21:41.629Z,75.50
2019-01-28T10:24:09.569Z,74.40
2019-01-28T10:26:37.458Z,75.60
2019-01-28T10:29:05.412Z,76.00
2019-01-28T10:31:33.650Z,77.20
2019-01-28T10:34:01.532Z,78.10
2019-01-28T10:36:34.139Z,77.50
2019-01-28T10:38:59.512Z,77.40
2019-01-28T10:41:27.852Z,77.60
2019-01-28T10:43:56.064Z,77.60
2019-01-28T10:46:24.011Z,77.30
2019-01-28T10:48:51.985Z,76.90
2019-01-28T10:51:20.175Z,78.70
2019-01-28T10:53:48.062Z,78.60
2019-01-28T10:56:16.020Z,78.60
2019-01-28T10:58:43.958Z,78.20
2019-01-28T11:01:11.901Z,79.40
2019-01-28T11:03:39.873Z,79.30
2019-01-28T11:06:07.845Z,79.00
2019-01-28T11:08:35.732Z,78.80
2019-01-28T11:11:03.980Z,79.50
2019-01-28T11:13:31.939Z,79.70
2019-01-28T11:15:59.879Z,78.90
2019-01-28T11:18:28.728Z,79.00
2019-01-28T11:20:56.798Z,78.60
2019-01-28T11:23:25.028Z,78.20
2019-01-28T11:25:52.939Z,77.60
2019-01-28T11:28:21.000Z,75.90
2019-01-28T11:30:52.708Z,77.20
2019-01-28T11:33:20.683Z,76.60
2019-01-28T11:35:48.692Z,77.00
2019-01-28T11:38:17.837Z,77.80
2019-01-28T11:40:45.820Z,77.60
2019-01-28T11:43:13.825Z,76.90
2019-01-28T11:45:43.217Z,77.30
2019-01-28T11:48:11.139Z,76.50
2019-01-28T11:50:39.354Z,76.40
2019-01-28T11:53:07.334Z,77.10
2019-01-28T11:55:35.263Z,76.90
2019-01-28T11:58:03.224Z,77.40
2019-01-28T12:00:35.517Z,77.30
2019-01-28T12:03:03.572Z,77.70
2019-01-28T12:05:31.620Z,77.60
2019-01-28T12:07:59.847Z,78.20
2019-01-28T12:10:28.108Z,78.90
2019-01-28T12:12:56.419Z,78.90
2019-01-28T12:15:24.391Z,78.80
2019-01-28T12:17:52.344Z,79.90
2019-01-28T12:20:20.432Z,79.40
2019-01-28T12:22:48.624Z,80.00
2019-01-28T12:25:17.365Z,80.10
2019-01-28T12:27:45.297Z,80.30
2019-01-28T12:30:15.613Z,80.10
2019-01-28T12:32:43.484Z,80.20
2019-01-28T12:35:11.844Z,79.90
2019-01-28T12:37:39.709Z,79.10
2019-01-28T12:40:07.999Z,78.50
2019-01-28T12:42:36.198Z,79.30
2019-01-28T12:45:04.901Z,79.80
2019-01-28T12:47:32.836Z,79.70
2019-01-28T12:50:00.721Z,79.90
2019-01-28T12:52:28.937Z,79.50
2019-01-28T12:54:57.059Z,79.90
2019-01-28T12:57:24.924Z,80.10
2019-01-28T12:59:52.812Z,80.10
2019-01-28T13:02:21.032Z,79.90
2019-01-28T13:04:48.904Z,81.00
2019-01-28T13:07:16.848Z,81.10
2019-01-28T13:09:44.728Z,80.80
2019-01-28T13:12:12.591Z,81.50
2019-01-28T13:14:40.517Z,81.00
2019-01-28T13:17:08.418Z,80.00
2019-01-28T13:19:36.394Z,80.60
2019-01-28T13:22:04.761Z,80.70
2019-01-28T13:24:32.804Z,79.90
2019-01-28T13:27:01.122Z,80.50
2019-01-28T13:29:29.068Z,81.10
2019-01-28T13:31:57.244Z,80.80
2019-01-28T13:34:25.160Z,80.50
2019-01-28T13:36:53.037Z,80.60
2019-01-28T13:39:21.049Z,81.30
2019-01-28T13:41:49.029Z,81.80
2019-01-28T13:44:17.201Z,80.90
2019-01-28T13:46:45.542Z,81.10
2019-01-28T13:49:14.069Z,81.20
2019-01-28T13:51:42.045Z,81.10
2019-01-28T13:54:10.253Z,80.10
2019-01-28T13:56:38.224Z,81.70
2019-01-28T13:59:06.185Z,82.30
2019-01-28T14:01:34.143Z,82.10
2019-01-28T14:04:02.021Z,83.50
2019-01-28T14:06:29.973Z,83.70
2019-01-28T14:08:57.932Z,84.20
2019-01-28T14:11:25.816Z,84.60
2019-01-28T14:13:54.093Z,85.10
2019-01-28T14:16:21.998Z,84.60
2019-01-28T14:18:49.865Z,85.10
2019-01-28T14:21:21.072Z,85.40
2019-01-28T14:23:48.941Z,85.90
2019-01-28T14:26:17.033Z,86.60
2019-01-28T14:28:44.991Z,86.30
2019-01-28T14:31:12.881Z,86.90
2019-01-28T14:33:40.749Z,87.40
2019-01-28T14:36:09.024Z,88.00
2019-01-28T14:38:37.316Z,88.60
2019-01-28T14:41:05.300Z,88.10
2019-01-28T14:43:33.513Z,87.90
2019-01-28T14:46:01.412Z,88.40
2019-01-28T14:48:29.546Z,89.10
2019-01-28T14:50:57.907Z,89.70
2019-01-28T14:53:26.044Z,89.90
2019-01-28T14:55:54.008Z,90.20
2019-01-28T14:58:21.968Z,90.20
2019-01-28T15:00:50.138Z,90.50
2019-01-28T15:03:18.079Z,90.80
2019-01-28T15:05:46.169Z,90.90
2019-01-28T15:08:14.024Z,90.90
2019-01-28T15:10:42.005Z,91.00
2019-01-28T15:13:09.941Z,91.10
2019-01-28T15:15:38.646Z,91.50
2019-01-28T15:18:07.463Z,91.60
2019-01-28T15:20:35.485Z,91.70
2019-01-28T15:23:03.452Z,91.70
2019-01-28T15:25:31.400Z,92.10
2019-01-28T15:27:59.361Z,92.20
2019-01-28T15:30:27.791Z,92.30
2019-01-28T15:32:55.788Z,92.60
2019-01-28T15:35:23.721Z,93.00
2019-01-28T15:37:51.663Z,93.40
2019-01-28T15:40:20.777Z,93.70
2019-01-28T15:42:48.780Z,93.90
2019-01-28T15:45:20.888Z,94.10
2019-01-28T15:47:48.933Z,94.20
2019-01-28T15:50:17.004Z,94.40
2019-01-28T15:52:45.113Z,94.40
2019-01-28T15:55:15.371Z,94.70
2019-01-28T15:57:43.431Z,94.90
2019-01-28T16:00:13.294Z,95.20
2019-01-28T16:02:41.512Z,95.10
2019-01-28T16:05:09.648Z,95.10
2019-01-28T16:07:37.789Z,95.40
2019-01-28T16:10:06.627Z,95.50
2019-01-28T16:12:34.541Z,95.50
2019-01-28T16:15:02.565Z,95.70
2019-01-28T16:17:30.589Z,95.70
2019-01-28T16:19:58.800Z,95.80
2019-01-28T16:22:26.792Z,95.80
2019-01-28T16:24:54.665Z,95.90
2019-01-28T16:27:22.628Z,95.80
2019-01-28T16:29:50.736Z,96.00
2019-01-28T16:32:18.656Z,96.10
2019-01-28T16:34:46.548Z,96.10
2019-01-28T16:37:14.455Z,96.00
2019-01-28T16:39:42.364Z,95.90
2019-01-28T16:42:10.253Z,95.90
2019-01-28T16:44:38.118Z,95.90
2019-01-28T16:47:06.071Z,95.90
2019-01-28T16:49:34.184Z,95.90
2019-01-28T16:52:02.197Z,95.70
2019-01-28T16:54:30.060Z,95.90
2019-01-28T16:56:58.428Z,95.70
2019-01-28T16:59:26.316Z,95.80
2019-01-28T17:01:54.229Z,96.00
2019-01-28T17:04:22.173Z,96.10
2019-01-28T17:06:50.315Z,96.10
2019-01-28T17:09:18.173Z,95.90
2019-01-28T17:11:46.078Z,95.90
2019-01-28T17:14:14.183Z,95.80
2019-01-28T17:16:42.158Z,96.00
2019-01-28T17:19:10.092Z,96.10
2019-01-28T17:21:37.981Z,96.30
2019-01-28T17:24:05.969Z,96.30
2019-01-28T17:26:33.845Z,96.60
2019-01-28T17:29:01.728Z,96.20
2019-01-28T17:31:29.840Z,96.10
2019-01-28T17:33:57.737Z,96.10
2019-01-28T17:36:25.605Z,96.10
2019-01-28T17:38:53.508Z,96.30
2019-01-28T17:41:21.392Z,96.20
2019-01-28T17:43:49.392Z,96.30
2019-01-28T17:46:17.320Z,96.40
2019-01-28T17:48:45.204Z,96.50
2019-01-28T17:51:13.344Z,96.50
2019-01-28T17:53:41.473Z,96.50
2019-01-28T17:56:09.336Z,96.40
2019-01-28T17:58:48.236Z,96.40
2019-01-28T18:01:17.232Z,96.50
2019-01-28T18:03:45.121Z,96.40
2019-01-28T18:06:13.052Z,96.50
2019-01-28T18:08:41.064Z,96.60
2019-01-28T18:11:08.936Z,96.70
2019-01-28T18:13:36.828Z,96.80
2019-01-28T18:16:04.984Z,96.90
2019-01-28T18:18:32.880Z,96.90
2019-01-28T18:21:00.885Z,96.90
2019-01-28T18:23:31.249Z,97.10
2019-01-28T18:25:59.190Z,97.10
2019-01-28T18:28:27.152Z,97.20
2019-01-28T18:30:55.264Z,97.10
2019-01-28T18:33:23.168Z,97.30
2019-01-28T18:35:51.063Z,97.20
2019-01-28T18:38:19.053Z,97.30
2019-01-28T18:40:47.008Z,97.50
2019-01-28T18:43:15.247Z,97.60
2019-01-28T18:45:43.108Z,97.40
2019-01-28T18:48:11.049Z,97.40
2019-01-28T18:50:39.348Z,97.30
2019-01-28T18:53:07.456Z,97.40
2019-01-28T18:55:35.399Z,97.50
2019-01-28T18:58:03.687Z,97.60
2019-01-28T19:00:31.724Z,97.60
2019-01-28T19:02:59.817Z,97.70
2019-01-28T19:05:45.788Z,97.80
2019-01-28T19:08:20.784Z,97.80
2019-01-28T19:11:10.933Z,97.90
2019-01-28T19:13:45.369Z,97.90
2019-01-28T19:16:44.473Z,98.00
2019-01-28T19:19:34.472Z,98.00
2019-01-28T19:22:03.368Z,98.00
2019-01-28T19:24:31.297Z,98.00
2019-01-28T19:26:59.261Z,98.10
2019-01-28T19:29:27.392Z,98.10
2019-01-28T19:31:55.494Z,98.10
2019-01-28T19:34:23.388Z,98.20
2019-01-28T19:36:51.324Z,98.20
2019-01-28T19:39:19.304Z,98.20
2019-01-28T19:41:47.257Z,98.40
2019-01-28T19:44:15.208Z,98.60
2019-01-28T19:46:43.558Z,98.50
2019-01-28T19:49:11.596Z,98.60
2019-01-28T19:51:39.531Z,98.60
2019-01-28T19:54:07.701Z,98.40
2019-01-28T19:56:35.725Z,98.40
2019-01-28T19:59:03.855Z,98.40
2019-01-28T20:01:31.804Z,98.40
2019-01-28T20:03:59.668Z,98.70
2019-01-28T20:06:27.560Z,98.80
2019-01-28T20:08:55.538Z,98.80
2019-01-28T20:11:23.464Z,98.80
2019-01-28T20:13:51.361Z,99.00
2019-01-28T20:16:19.332Z,98.80
2019-01-28T20:18:47.558Z,98.80
2019-01-28T20:21:23.434Z,98.90
2019-01-28T20:23:45.307Z,98.80
2019-01-28T20:26:13.318Z,98.90
2019-01-28T20:28:41.877Z,98.90
2019-01-28T20:31:09.955Z,98.80
2019-01-28T20:33:37.952Z,98.70
2019-01-28T20:36:06.214Z,98.80
2019-01-28T20:38:34.177Z,98.70
2019-01-28T20:41:02.077Z,98.60
2019-01-28T20:43:30.269Z,98.60
2019-01-28T20:45:58.175Z,98.60
2019-01-28T20:48:26.135Z,98.70
2019-01-28T20:50:54.097Z,98.60
2019-01-28T20:53:22.085Z,98.50
2019-01-28T20:55:50.056Z,98.20
2019-01-28T20:58:17.961Z,97.90
2019-01-28T21:00:45.959Z,97.70
2019-01-28T21:03:13.976Z,97.60
2019-01-28T21:05:42.002Z,97.70
2019-01-28T21:08:09.916Z,98.00
2019-01-28T21:10:38.152Z,98.00
2019-01-28T21:13:06.437Z,98.20
2019-01-28T21:15:34.602Z,98.20
2019-01-28T21:18:02.641Z,98.20
2019-01-28T21:20:30.539Z,98.20
2019-01-28T21:22:58.635Z,98.30
2019-01-28T21:25:26.664Z,98.20
2019-01-28T21:27:54.622Z,98.20
2019-01-28T21:30:24.067Z,98.00
2019-01-28T21:32:52.416Z,97.90
2019-01-28T21:35:27.832Z,98.10
2019-01-28T21:38:00.775Z,98.20
2019-01-28T21:40:29.051Z,98.10
2019-01-28T21:42:57.200Z,98.10
2019-01-28T21:45:25.330Z,98.00
2019-01-28T21:47:53.296Z,98.00
2019-01-28T21:50:21.894Z,98.00
2019-01-28T21:52:49.870Z,98.20
2019-01-28T21:55:17.820Z,98.30
2019-01-28T21:57:46.292Z,98.10
2019-01-28T22:00:14.889Z,97.70
2019-01-28T22:02:42.757Z,97.60
2019-01-28T22:05:10.737Z,97.90
2019-01-28T22:07:38.638Z,98.20
2019-01-28T22:10:06.845Z,98.70
2019-01-28T22:12:35.001Z,98.80
2019-01-28T22:15:02.969Z,99.00
2019-01-28T22:17:30.857Z,99.20
2019-01-28T22:19:58.717Z,99.10
2019-01-28T22:22:26.932Z,99.00
2019-01-28T22:24:54.953Z,99.00
2019-01-28T22:27:22.852Z,99.00
2019-01-28T22:29:50.716Z,99.00
2019-01-28T22:32:18.849Z,99.00
2019-01-28T22:34:47.853Z,99.10
2019-01-28T22:37:16.355Z,99.00
2019-01-28T22:39:44.511Z,98.80
2019-01-28T22:42:12.384Z,98.60
2019-01-28T22:44:40.380Z,98.10
2019-01-28T22:47:08.556Z,97.70
2019-01-28T22:49:36.672Z,97.40
2019-01-28T22:52:07.982Z,97.10
2019-01-28T22:54:34.244Z,97.10
2019-01-28T22:57:02.364Z,97.30
2019-01-28T22:59:30.268Z,97.30
2019-01-28T23:01:58.133Z,97.40
2019-01-28T23:04:26.269Z,97.40
2019-01-28T23:06:54.488Z,97.40
2019-01-28T23:09:22.364Z,97.40
2019-01-28T23:11:50.237Z,97.40
2019-01-28T23:14:18.165Z,97.40
2019-01-28T23:16:46.024Z,97.40
2019-01-28T23:19:14.186Z,97.20
2019-01-28T23:21:42.114Z,97.00
2019-01-28T23:24:10.179Z,96.70
2019-01-28T23:26:38.112Z,96.50
2019-01-28T23:29:06.288Z,96.70
2019-01-28T23:31:34.521Z,96.80
2019-01-28T23:34:02.401Z,96.90
2019-01-28T23:36:30.540Z,96.90
2019-01-28T23:38:58.419Z,96.70
2019-01-28T23:41:26.541Z,97.00
2019-01-28T23:43:54.652Z,97.10
2019-01-28T23:46:22.590Z,97.10
2019-01-28T23:48:50.889Z,97.30
2019-01-28T23:51:19.045Z,97.70
2019-01-28T23:53:47.292Z,97.40
2019-01-28T23:56:15.268Z,97.40
2019-01-28T23:58:43.548Z,97.30
